Time;durP1;ratioP1;P1;durP2;ratioP2;P2;SDS_P1;SDS_P2;PMS_P1;PMS_P2;Temp;Humidity;BMP_temperature;BMP_pressure;BME280_temperature;BME280_humidity;BME280_pressure;Samples;Min_cycle;Max_cycle;Signal;HPM_P1;HPM_P2
2021/03/26 00:02:01;;;;;;;35.95;17.98;;;;;;;-141.50;100.00;63355.56;5068279;28;20045;-79
2021/03/26 00:04:27;;;;;;;36.53;17.02;;;;;;;-141.50;100.00;63355.56;5048685;28;20122;-79
2021/03/26 00:06:53;;;;;;;37.45;18.15;;;;;;;-141.50;100.00;63355.56;5060294;28;20127;-79
2021/03/26 00:09:23;;;;;;;39.85;17.08;;;;;;;-141.50;100.00;63355.56;5059870;28;20041;-79
2021/03/26 00:11:51;;;;;;;37.05;16.60;;;;;;;-141.50;100.00;63355.56;5062209;28;20439;-78
2021/03/26 00:14:18;;;;;;;34.50;16.17;;;;;;;-141.50;100.00;63355.56;5077533;28;20047;-78
2021/03/26 00:16:44;;;;;;;35.88;16.75;;;;;;;-141.50;100.00;63355.56;5077325;28;20068;-79
2021/03/26 00:19:11;;;;;;;36.38;16.08;;;;;;;-141.50;100.00;63355.56;5075878;28;20037;-79
2021/03/26 00:21:38;;;;;;;40.17;16.20;;;;;;;-141.50;100.00;63355.56;5077093;28;20053;-79
2021/03/26 00:24:04;;;;;;;36.42;16.05;;;;;;;-141.50;100.00;63355.56;5076469;28;20049;-79
2021/03/26 00:26:31;;;;;;;34.78;16.08;;;;;;;-141.50;100.00;63355.56;5077811;28;20051;-78
2021/03/26 00:29:15;;;;;;;37.97;15.65;;;;;;;-141.50;100.00;63355.56;5062443;28;20567;-78
2021/03/26 00:31:43;;;;;;;35.33;15.90;;;;;;;-141.50;100.00;63355.56;5078394;28;20075;-77
2021/03/26 00:34:09;;;;;;;31.75;16.08;;;;;;;-141.50;100.00;63355.56;5060294;28;20313;-79
2021/03/26 00:36:36;;;;;;;28.80;14.30;;;;;;;-141.50;100.00;63355.56;5076106;28;20032;-78
2021/03/26 00:39:08;;;;;;;35.95;15.50;;;;;;;-141.50;100.00;63355.56;5077202;28;20044;-78
2021/03/26 00:41:37;;;;;;;39.25;16.02;;;;;;;-141.50;100.00;63355.56;5076482;28;20048;-79
2021/03/26 00:44:04;;;;;;;34.60;15.23;;;;;;;-141.50;100.00;63355.56;5058677;28;20651;-78
2021/03/26 00:46:34;;;;;;;35.10;16.50;;;;;;;-141.50;100.00;63355.56;5076180;28;20048;-79
2021/03/26 00:49:02;;;;;;;37.97;15.40;;;;;;;-141.50;100.00;63355.56;5063762;28;20051;-79
2021/03/26 00:51:28;;;;;;;32.90;14.68;;;;;;;-141.50;100.00;63355.56;5084478;28;20036;-79
2021/03/26 00:53:54;;;;;;;34.95;15.70;;;;;;;-141.50;100.00;63355.56;5079392;28;20050;-79
2021/03/26 00:56:21;;;;;;;33.90;15.52;;;;;;;-141.50;100.00;63355.56;5077201;28;20037;-79
2021/03/26 00:58:48;;;;;;;31.60;15.75;;;;;;;-141.50;100.00;63355.56;5076843;28;20124;-80
2021/03/26 01:01:14;;;;;;;32.50;15.63;;;;;;;-141.50;100.00;63355.56;5077955;28;20468;-79
2021/03/26 01:03:40;;;;;;;34.70;16.17;;;;;;;-141.50;100.00;63355.56;5075796;28;20495;-79
2021/03/26 01:06:08;;;;;;;32.78;15.77;;;;;;;-141.50;100.00;63355.56;5076018;28;20045;-79
2021/03/26 01:08:38;;;;;;;32.72;15.15;;;;;;;-141.50;100.00;63355.56;5076271;28;20045;-80
2021/03/26 01:11:15;;;;;;;33.75;16.17;;;;;;;-141.50;100.00;63355.56;5075439;28;20514;-80
2021/03/26 01:13:43;;;;;;;36.42;15.48;;;;;;;-141.50;100.00;63355.56;5076229;28;20047;-79
2021/03/26 01:16:09;;;;;;;33.28;14.48;;;;;;;-141.50;100.00;63355.56;5074619;28;20044;-80
2021/03/26 01:18:40;;;;;;;30.45;14.25;;;;;;;-141.50;100.00;63355.56;5077334;28;20041;-78
2021/03/26 01:21:08;;;;;;;29.38;14.68;;;;;;;-141.50;100.00;63355.56;5076181;28;20048;-78
2021/03/26 01:23:34;;;;;;;45.45;15.70;;;;;;;-141.50;100.00;63355.56;5074305;28;20048;-78
2021/03/26 01:26:01;;;;;;;32.17;14.85;;;;;;;-141.50;100.00;63355.56;5075954;28;20486;-79
2021/03/26 01:28:28;;;;;;;37.63;15.80;;;;;;;-141.50;100.00;63355.56;5073174;28;20041;-81
2021/03/26 01:30:58;;;;;;;36.50;14.65;;;;;;;-141.50;100.00;63355.56;5074794;28;20129;-79
2021/03/26 01:33:26;;;;;;;36.08;15.40;;;;;;;-141.50;100.00;63355.56;5074607;28;20040;-78
2021/03/26 01:35:53;;;;;;;38.03;16.15;;;;;;;-141.50;100.00;63355.56;5053796;28;20033;-78
2021/03/26 01:38:20;;;;;;;35.15;16.50;;;;;;;-141.50;100.00;63355.56;5056288;28;20068;-80
2021/03/26 01:40:52;;;;;;;34.47;15.32;;;;;;;-141.50;100.00;63355.56;5067148;28;20443;-79
2021/03/26 01:43:34;;;;;;;35.45;15.55;;;;;;;-141.50;100.00;63355.56;5052347;28;20182;-78
2021/03/26 01:46:01;;;;;;;38.13;16.08;;;;;;;-141.50;100.00;63355.56;5036620;28;20048;-79
2021/03/26 01:48:43;;;;;;;37.20;16.10;;;;;;;-141.50;100.00;63355.56;5037772;28;20079;-78
2021/03/26 01:51:19;;;;;;;37.03;16.05;;;;;;;-141.50;100.00;63355.56;5054042;28;20060;-79
2021/03/26 01:53:47;;;;;;;33.50;15.60;;;;;;;-141.50;100.00;63355.56;5055303;28;20068;-79
2021/03/26 01:56:13;;;;;;;36.45;14.90;;;;;;;-141.50;100.00;63355.56;5038368;28;20380;-79
2021/03/26 01:58:40;;;;;;;33.55;15.20;;;;;;;-141.50;100.00;63355.56;5055932;28;20056;-80
2021/03/26 02:01:12;;;;;;;34.78;15.55;;;;;;;-141.50;100.00;63355.56;5056331;28;20049;-79
2021/03/26 02:03:41;;;;;;;34.55;15.45;;;;;;;-141.50;100.00;63355.56;5054579;28;20045;-79
2021/03/26 02:06:17;;;;;;;32.97;14.73;;;;;;;-141.50;100.00;63355.56;5054050;28;20132;-79
2021/03/26 02:08:44;;;;;;;32.55;15.00;;;;;;;-141.50;100.00;63355.56;5037767;28;20504;-79
2021/03/26 02:11:29;;;;;;;34.90;15.25;;;;;;;-141.50;100.00;63355.56;5038207;28;20056;-79
2021/03/26 02:13:57;;;;;;;33.67;15.13;;;;;;;-141.50;100.00;63355.56;5038249;28;20037;-80
2021/03/26 02:16:24;;;;;;;37.45;15.60;;;;;;;-141.50;100.00;63355.56;5055578;28;20492;-78
2021/03/26 02:18:51;;;;;;;36.38;15.85;;;;;;;-141.50;100.00;63355.56;5035249;28;20484;-80
2021/03/26 02:21:23;;;;;;;31.80;15.38;;;;;;;-141.50;100.00;63355.56;5035818;28;20041;-79
2021/03/26 02:23:50;;;;;;;34.03;14.60;;;;;;;-141.50;100.00;63355.56;5052085;28;20041;-79
2021/03/26 02:26:21;;;;;;;32.28;13.30;;;;;;;-141.50;100.00;63355.56;5054295;28;20045;-79
2021/03/26 02:28:48;;;;;;;34.88;15.80;;;;;;;-141.50;100.00;63355.56;5049756;28;20045;-78
2021/03/26 02:31:16;;;;;;;32.53;14.10;;;;;;;-141.50;100.00;63355.56;5053274;28;20056;-79
2021/03/26 02:33:43;;;;;;;33.08;14.43;;;;;;;-141.50;100.00;63355.56;5052233;28;20056;-78
2021/03/26 02:36:13;;;;;;;35.25;14.45;;;;;;;-141.50;100.00;63355.56;5053028;28;20041;-79
2021/03/26 02:38:42;;;;;;;31.90;14.45;;;;;;;-141.50;100.00;63355.56;5053972;28;20041;-78
2021/03/26 02:41:08;;;;;;;29.23;13.73;;;;;;;-141.50;100.00;63355.56;5041077;28;20617;-79
2021/03/26 02:43:59;;;;;;;32.53;14.68;;;;;;;-141.50;100.00;63355.56;5054863;28;20044;-79
2021/03/26 02:46:34;;;;;;;33.05;14.40;;;;;;;-141.50;100.00;63355.56;5054456;28;20041;-78
2021/03/26 02:49:17;;;;;;;34.78;14.93;;;;;;;-141.50;100.00;63355.56;5056141;28;20032;-79
2021/03/26 02:51:51;;;;;;;34.38;14.35;;;;;;;-141.50;100.00;63355.56;5054860;28;20040;-78
2021/03/26 02:54:27;;;;;;;40.07;16.33;;;;;;;-141.50;100.00;63355.56;5054292;28;20110;-78
2021/03/26 02:57:00;;;;;;;35.50;15.07;;;;;;;-141.50;100.00;63355.56;5056706;28;20048;-79
2021/03/26 02:59:50;;;;;;;34.05;14.80;;;;;;;-141.50;100.00;63355.56;5056183;28;20493;-79
2021/03/26 03:02:21;;;;;;;36.65;14.52;;;;;;;-141.50;100.00;63355.56;5037371;28;20041;-78
2021/03/26 03:05:18;;;;;;;32.00;15.20;;;;;;;-141.50;100.00;63355.56;5052071;28;20132;-78
2021/03/26 03:07:51;;;;;;;34.85;15.15;;;;;;;-141.50;100.00;63355.56;5066039;28;20045;-78
2021/03/26 03:10:37;;;;;;;37.10;14.70;;;;;;;-141.50;100.00;63355.56;5072572;28;20486;-79
2021/03/26 03:13:16;;;;;;;31.50;13.73;;;;;;;-141.50;100.00;63355.56;5056133;28;20057;-79
2021/03/26 03:15:48;;;;;;;34.17;14.32;;;;;;;-141.50;100.00;63355.56;5083562;28;20055;-79
2021/03/26 03:18:28;;;;;;;34.45;14.70;;;;;;;-141.50;100.00;63355.56;5071915;28;20051;-78
2021/03/26 03:21:17;;;;;;;32.50;13.70;;;;;;;-141.50;100.00;63355.56;5071967;28;20514;-79
2021/03/26 03:23:51;;;;;;;32.00;13.23;;;;;;;-141.50;100.00;63355.56;5073175;28;20104;-79
2021/03/26 03:26:51;;;;;;;29.23;13.90;;;;;;;-141.50;100.00;63355.56;5071362;28;20094;-79
2021/03/26 03:29:31;;;;;;;29.38;14.18;;;;;;;-141.50;100.00;63355.56;5072525;28;20037;-78
2021/03/26 03:32:10;;;;;;;30.98;14.32;;;;;;;-141.50;100.00;63355.56;5072326;28;20037;-79
2021/03/26 03:34:42;;;;;;;32.28;13.95;;;;;;;-141.50;100.00;63355.56;5072389;28;20040;-79
2021/03/26 03:37:15;;;;;;;29.63;12.70;;;;;;;-141.50;100.00;63355.56;5072384;28;20048;-78
2021/03/26 03:40:17;;;;;;;34.80;14.32;;;;;;;-141.50;100.00;63355.56;5058153;28;20067;-79
2021/03/26 03:43:00;;;;;;;36.67;14.90;;;;;;;-141.50;100.00;63355.56;5077765;28;20036;-78
2021/03/26 03:45:35;;;;;;;31.80;14.05;;;;;;;-141.50;100.00;63355.56;5076562;28;20056;-78
2021/03/26 03:48:09;;;;;;;30.13;13.93;;;;;;;-141.50;100.00;63355.56;5075787;28;20049;-78
2021/03/26 03:50:51;;;;;;;35.88;14.32;;;;;;;-141.50;100.00;63355.56;5075610;28;20055;-78
2021/03/26 03:53:33;;;;;;;29.15;12.95;;;;;;;-141.50;100.00;63355.56;5058794;28;20492;-79
2021/03/26 03:56:15;;;;;;;34.83;12.80;;;;;;;-141.50;100.00;63355.56;5076156;28;20044;-78
2021/03/26 03:58:47;;;;;;;28.90;13.77;;;;;;;-141.50;100.00;63355.56;5075920;28;20048;-79
2021/03/26 04:01:25;;;;;;;32.42;13.10;;;;;;;-141.50;100.00;63355.56;5071717;28;20191;-79
2021/03/26 04:04:17;;;;;;;32.97;13.95;;;;;;;-141.50;100.00;63355.56;5075064;28;20518;-78
2021/03/26 04:06:54;;;;;;;34.50;14.63;;;;;;;-141.50;100.00;63355.56;5067741;28;20060;-78
2021/03/26 04:09:25;;;;;;;34.00;14.82;;;;;;;-141.50;100.00;63355.56;5077733;28;20512;-79
2021/03/26 04:12:00;;;;;;;34.53;15.15;;;;;;;-141.50;100.00;63355.56;5078219;28;20045;-79
2021/03/26 04:14:33;;;;;;;35.00;14.63;;;;;;;-141.50;100.00;63355.56;5081021;28;20051;-79
2021/03/26 04:17:20;;;;;;;32.90;13.48;;;;;;;-141.50;100.00;63355.56;5082205;28;20040;-78
2021/03/26 04:19:54;;;;;;;34.00;14.27;;;;;;;-141.50;100.00;63355.56;5060618;28;20040;-79
2021/03/26 04:22:26;;;;;;;36.67;16.27;;;;;;;-141.50;100.00;63355.56;5079043;28;20040;-78
2021/03/26 04:25:25;;;;;;;35.70;15.38;;;;;;;-141.50;100.00;63355.56;5079469;28;20052;-78
2021/03/26 04:28:06;;;;;;;33.47;14.73;;;;;;;-141.50;100.00;63355.56;5077812;28;20041;-78
2021/03/26 04:30:40;;;;;;;32.78;15.65;;;;;;;-141.50;100.00;63355.56;5079603;28;20049;-80
2021/03/26 04:33:09;;;;;;;33.70;15.05;;;;;;;-141.50;100.00;63355.56;5078038;28;20380;-79
2021/03/26 04:35:35;;;;;;;35.95;14.27;;;;;;;-141.50;100.00;63355.56;5078851;28;20044;-80
2021/03/26 04:38:19;;;;;;;28.27;14.30;;;;;;;-141.50;100.00;63355.56;5079388;28;20051;-79
2021/03/26 04:40:53;;;;;;;28.70;13.45;;;;;;;-141.50;100.00;63355.56;5062311;28;20071;-79
2021/03/26 04:43:44;;;;;;;30.58;12.88;;;;;;;-141.50;100.00;63355.56;5079101;28;20388;-80
2021/03/26 04:46:17;;;;;;;35.10;14.18;;;;;;;-141.50;100.00;63355.56;5084762;28;20059;-79
2021/03/26 04:49:14;;;;;;;33.15;14.75;;;;;;;-141.50;100.00;63355.56;5083015;28;20104;-80
2021/03/26 04:51:50;;;;;;;36.80;14.55;;;;;;;-141.50;100.00;63355.56;5076887;28;20507;-80
2021/03/26 04:54:20;;;;;;;30.80;13.18;;;;;;;-141.50;100.00;63355.56;5076796;28;20048;-80
2021/03/26 04:57:16;;;;;;;31.17;13.45;;;;;;;-141.50;100.00;63355.56;5076631;28;20048;-80
2021/03/26 04:59:51;;;;;;;34.05;14.18;;;;;;;-141.50;100.00;63355.56;5018011;28;20048;-79
2021/03/26 05:02:21;;;;;;;36.50;14.90;;;;;;;-141.50;100.00;63355.56;5082048;28;20040;-79
2021/03/26 05:04:52;;;;;;;35.72;15.73;;;;;;;-141.50;100.00;63355.56;5077267;28;20046;-79
2021/03/26 05:07:34;;;;;;;42.17;16.52;;;;;;;-141.50;100.00;63355.56;5076216;28;20063;-79
2021/03/26 05:10:07;;;;;;;48.92;18.27;;;;;;;-141.50;100.00;63355.56;5078508;28;20045;-81
2021/03/26 05:12:39;;;;;;;59.45;22.42;;;;;;;-141.50;100.00;63355.56;5077098;28;20143;-80
2021/03/26 05:15:19;;;;;;;134.48;40.72;;;;;;;-141.50;100.00;63355.56;5075793;28;20041;-79
2021/03/26 05:17:54;;;;;;;177.30;54.55;;;;;;;-141.50;100.00;63355.56;5077426;28;20060;-81
2021/03/26 05:20:27;;;;;;;138.85;47.83;;;;;;;-141.50;100.00;63355.56;5068244;28;20050;-80
2021/03/26 05:22:56;;;;;;;95.15;36.33;;;;;;;-141.50;100.00;63355.56;5067750;28;20254;-80
2021/03/26 05:25:25;;;;;;;73.32;30.35;;;;;;;-141.50;100.00;63355.56;5085686;28;20074;-80
2021/03/26 05:27:53;;;;;;;65.05;26.73;;;;;;;-141.50;100.00;63355.56;5087197;28;20040;-79
2021/03/26 05:30:29;;;;;;;64.97;26.70;;;;;;;-141.50;100.00;63355.56;5082607;28;20511;-79
2021/03/26 05:33:09;;;;;;;65.32;27.45;;;;;;;-141.50;100.00;63355.56;5063975;28;20058;-78
2021/03/26 05:35:59;;;;;;;60.50;27.42;;;;;;;-141.50;100.00;63355.56;5065499;28;20136;-78
2021/03/26 05:39:12;;;;;;;62.45;26.52;;;;;;;-141.50;100.00;63355.56;5063935;22;20056;-75
2021/03/26 05:41:57;;;;;;;58.78;26.27;;;;;;;-141.50;100.00;63355.56;5070497;28;20048;-75
2021/03/26 05:44:47;;;;;;;62.50;27.92;;;;;;;-141.50;100.00;63355.56;5063631;28;20245;-74
2021/03/26 05:47:38;;;;;;;63.10;27.10;;;;;;;-141.50;100.00;63355.56;5075732;28;20051;-75
2021/03/26 05:50:15;;;;;;;59.97;25.95;;;;;;;-141.50;100.00;63355.56;5062762;28;20036;-75
2021/03/26 05:53:18;;;;;;;59.78;25.60;;;;;;;-141.50;100.00;63355.56;5091552;28;20055;-75
2021/03/26 05:56:00;;;;;;;63.28;26.05;;;;;;;-141.50;100.00;63355.56;5091905;28;20093;-76
2021/03/26 05:58:32;;;;;;;56.20;24.92;;;;;;;-141.50;100.00;63355.56;5083554;28;20035;-75
2021/03/26 06:01:23;;;;;;;56.03;25.20;;;;;;;-141.50;100.00;63355.56;5075821;28;20044;-76
2021/03/26 06:04:23;;;;;;;54.00;24.75;;;;;;;-141.50;100.00;63355.56;5050399;28;20041;-76
2021/03/26 06:07:02;;;;;;;66.45;25.50;;;;;;;-141.50;100.00;63355.56;5072744;28;20048;-75
2021/03/26 06:09:53;;;;;;;56.40;24.55;;;;;;;-141.50;100.00;63355.56;5080502;28;20036;-75
2021/03/26 06:12:41;;;;;;;60.75;25.88;;;;;;;-141.50;100.00;63355.56;5090100;28;20044;-76
2021/03/26 06:15:41;;;;;;;57.80;25.05;;;;;;;-141.50;100.00;63355.56;5091786;28;20051;-75
2021/03/26 06:18:43;;;;;;;58.20;24.83;;;;;;;-141.50;100.00;63355.56;5073429;28;20052;-75
2021/03/26 06:21:29;;;;;;;54.65;24.92;;;;;;;-141.50;100.00;63355.56;5080388;28;20044;-75
2021/03/26 06:24:01;;;;;;;;;;;;;;;-141.50;100.00;63355.56;5069012;28;20052;-74
2021/03/26 06:26:40;;;;;;;53.58;24.95;;;;;;;-141.50;100.00;63355.56;5054419;28;20575;-74
2021/03/26 06:29:15;;;;;;;56.10;25.40;;;;;;;-141.50;100.00;63355.56;5045783;28;20036;-74
2021/03/26 06:32:06;;;;;;;54.75;25.25;;;;;;;-141.50;100.00;63355.56;5041176;28;20052;-74
2021/03/26 06:35:07;;;;;;;55.20;25.67;;;;;;;-141.50;100.00;63355.56;5071711;28;20044;-75
2021/03/26 06:38:00;;;;;;;57.75;25.75;;;;;;;-141.50;100.00;63355.56;5059123;28;20054;-75
2021/03/26 06:40:51;;;;;;;61.70;25.63;;;;;;;-141.50;100.00;63355.56;5051739;28;20321;-74
2021/03/26 06:43:32;;;;;;;56.17;25.75;;;;;;;-141.50;100.00;63355.56;5067436;28;20044;-75
2021/03/26 06:46:17;;;;;;;58.70;26.45;;;;;;;-141.50;100.00;63355.56;5048801;28;20048;-77
2021/03/26 06:49:05;;;;;;;54.80;25.05;;;;;;;-141.50;100.00;63355.56;5066498;28;20067;-76
2021/03/26 06:51:43;;;;;;;57.15;25.42;;;;;;;-141.50;100.00;63355.56;5067112;28;20044;-76
2021/03/26 06:54:28;;;;;;;52.03;25.20;;;;;;;-141.50;100.00;63355.56;5066844;28;20492;-74
2021/03/26 06:57:19;;;;;;;47.80;23.63;;;;;;;-141.50;100.00;63355.56;5048433;28;20045;-74
2021/03/26 07:00:10;;;;;;;44.05;21.25;;;;;;;-141.50;100.00;63355.56;5066823;28;20072;-75
2021/03/26 07:02:36;;;;;;;36.58;18.15;;;;;;;-141.50;100.00;63355.56;5066393;28;20424;-77
2021/03/26 07:05:11;;;;;;;36.95;17.85;;;;;;;-141.50;100.00;63355.56;5066004;28;20049;-73
2021/03/26 07:08:15;;;;;;;34.17;15.15;;;;;;;-141.50;100.00;63355.56;5073133;28;20048;-74
2021/03/26 07:10:49;;;;;;;30.83;13.48;;;;;;;-141.50;100.00;63355.56;5052753;28;20411;-75
2021/03/26 07:13:21;;;;;;;28.58;12.70;;;;;;;-141.50;100.00;63355.56;5045270;28;20060;-76
2021/03/26 07:16:19;;;;;;;32.15;12.75;;;;;;;-141.50;100.00;63355.56;5084358;28;20040;-77
2021/03/26 07:19:18;;;;;;;24.58;11.32;;;;;;;-141.50;100.00;63355.56;5066938;28;20041;-74
2021/03/26 07:22:06;;;;;;;24.85;11.13;;;;;;;-141.50;100.00;63355.56;5069288;28;20059;-77
2021/03/26 07:25:13;;;;;;;26.88;11.05;;;;;;;-141.50;100.00;63355.56;5069615;28;20068;-75
2021/03/26 07:27:54;;;;;;;22.15;9.57;;;;;;;-141.50;100.00;63355.56;5069662;28;20047;-75
2021/03/26 07:30:37;;;;;;;21.25;9.80;;;;;;;-141.50;100.00;63355.56;5069446;28;20036;-75
2021/03/26 07:33:15;;;;;;;21.67;8.63;;;;;;;-141.50;100.00;63355.56;5064701;28;20041;-75
2021/03/26 07:35:52;;;;;;;22.08;10.43;;;;;;;-141.50;100.00;63355.56;5051399;28;20198;-76
2021/03/26 07:38:51;;;;;;;21.27;9.95;;;;;;;-141.50;100.00;63355.56;5069125;28;20049;-77
2021/03/26 07:41:31;;;;;;;18.60;8.65;;;;;;;-141.50;100.00;63355.56;5069028;28;20078;-73
2021/03/26 07:44:00;;;;;;;22.77;8.93;;;;;;;-141.50;100.00;63355.56;5069489;28;20048;-76
2021/03/26 07:46:54;;;;;;;20.00;9.85;;;;;;;-141.50;100.00;63355.56;5069179;28;20583;-75
2021/03/26 07:49:38;;;;;;;;;;;;;;;-141.50;100.00;63355.56;5051482;28;20115;-74
2021/03/26 07:52:26;;;;;;;20.27;8.68;;;;;;;-141.50;100.00;63355.56;5068889;28;19927;-75
2021/03/26 07:55:30;;;;;;;18.48;9.02;;;;;;;-141.50;100.00;63355.56;5069355;28;20082;-75
2021/03/26 07:58:30;;;;;;;21.95;8.93;;;;;;;-141.50;100.00;63355.56;5070301;28;20049;-76
2021/03/26 08:01:07;;;;;;;23.27;9.70;;;;;;;-141.50;100.00;63355.56;5050841;28;20515;-75
2021/03/26 08:03:57;;;;;;;20.65;8.80;;;;;;;-141.50;100.00;63355.56;5068778;28;20056;-75
2021/03/26 08:06:23;;;;;;;22.48;10.25;;;;;;;-141.50;100.00;63355.56;5054751;28;20585;-75
2021/03/26 08:09:02;;;;;;;21.70;9.40;;;;;;;-141.50;100.00;63355.56;5068043;28;20044;-76
2021/03/26 08:11:53;;;;;;;24.77;8.77;;;;;;;-141.50;100.00;63355.56;5068552;28;20147;-76
2021/03/26 08:14:56;;;;;;;18.77;8.90;;;;;;;-141.50;100.00;63355.56;5068040;28;20063;-76
2021/03/26 08:17:47;;;;;;;20.30;9.48;;;;;;;-141.50;100.00;63355.56;5068255;28;20674;-75
2021/03/26 08:20:23;;;;;;;20.05;9.50;;;;;;;-141.50;100.00;63355.56;5050443;28;20040;-76
2021/03/26 08:23:27;;;;;;;25.65;10.07;;;;;;;-141.50;100.00;63355.56;5050108;28;20051;-76
2021/03/26 08:26:27;;;;;;;21.15;9.48;;;;;;;-141.50;100.00;63355.56;5050835;28;20549;-76
2021/03/26 08:29:00;;;;;;;17.25;9.05;;;;;;;-141.50;100.00;63355.56;5073227;28;20052;-76
2021/03/26 08:32:09;;;;;;;18.05;9.73;;;;;;;-141.50;100.00;63355.56;5056040;28;20053;-75
2021/03/26 08:34:57;;;;;;;21.48;9.15;;;;;;;-141.50;100.00;63355.56;5054989;28;20136;-75
2021/03/26 08:37:46;;;;;;;17.50;9.30;;;;;;;-141.50;100.00;63355.56;5067200;28;20067;-75
2021/03/26 08:40:23;;;;;;;18.13;8.18;;;;;;;-141.50;100.00;63355.56;5072291;28;20047;-75
2021/03/26 08:42:50;;;;;;;23.67;8.70;;;;;;;-141.50;100.00;63355.56;5080144;28;20048;-76
2021/03/26 08:45:31;;;;;;;18.88;7.97;;;;;;;-141.50;100.00;63355.56;5077858;28;20044;-73
2021/03/26 08:47:58;;;;;;;15.50;8.45;;;;;;;-141.50;100.00;63355.56;5059716;28;20454;-75
2021/03/26 08:50:52;;;;;;;17.70;8.40;;;;;;;-141.50;100.00;63355.56;5057340;28;20041;-76
2021/03/26 08:53:30;;;;;;;15.90;7.93;;;;;;;-141.50;100.00;63355.56;5080744;28;20144;-76
2021/03/26 08:56:29;;;;;;;21.65;8.85;;;;;;;-141.50;100.00;63355.56;5088138;28;20048;-75
2021/03/26 08:59:25;;;;;;;22.05;9.50;;;;;;;-141.50;100.00;63355.56;5074639;28;20064;-75
2021/03/26 09:02:01;;;;;;;20.52;9.25;;;;;;;-141.50;100.00;63355.56;5080164;28;20048;-75
2021/03/26 09:04:28;;;;;;;20.52;9.57;;;;;;;-141.50;100.00;63355.56;5044314;28;20545;-74
2021/03/26 09:07:16;;;;;;;20.63;10.05;;;;;;;-141.50;100.00;63355.56;5059332;28;20063;-74
2021/03/26 09:09:51;;;;;;;29.85;11.32;;;;;;;-141.50;100.00;63355.56;5059674;28;20044;-75
2021/03/26 09:12:17;;;;;;;23.98;10.82;;;;;;;-141.50;100.00;63355.56;5072926;28;20542;-75
2021/03/26 09:15:11;;;;;;;24.73;11.13;;;;;;;-141.50;100.00;63355.56;5075037;28;20092;-73
2021/03/26 09:17:48;;;;;;;23.88;10.32;;;;;;;-141.50;100.00;63355.56;5071020;28;20083;-74
2021/03/26 09:20:45;;;;;;;23.50;10.82;;;;;;;-141.50;100.00;63355.56;5082933;28;20123;-74
2021/03/26 09:23:39;;;;;;;22.45;11.40;;;;;;;-141.50;100.00;63355.56;5041766;28;20043;-75
2021/03/26 09:26:28;;;;;;;23.77;11.65;;;;;;;-141.50;100.00;63355.56;5073370;28;20054;-75
2021/03/26 09:28:57;;;;;;;22.77;11.48;;;;;;;-141.50;100.00;63355.56;5091374;28;20040;-74
2021/03/26 09:31:32;;;;;;;25.80;11.25;;;;;;;-141.50;100.00;63355.56;5073426;28;20095;-74
2021/03/26 09:34:25;;;;;;;28.88;11.32;;;;;;;-141.50;100.00;63355.56;5091403;28;20048;-74
2021/03/26 09:37:16;;;;;;;18.55;10.25;;;;;;;-141.50;100.00;63355.56;5058562;28;20044;-75
2021/03/26 09:39:46;;;;;;;24.80;10.60;;;;;;;-141.50;100.00;63355.56;5092486;28;20460;-74
2021/03/26 09:42:27;;;;;;;23.80;11.43;;;;;;;-141.50;100.00;63355.56;5057208;28;20048;-74
2021/03/26 09:45:05;;;;;;;19.35;10.77;;;;;;;-141.50;100.00;63355.56;5051087;28;20105;-74
2021/03/26 09:47:44;;;;;;;20.40;10.88;;;;;;;-141.50;100.00;63355.56;5052553;28;20075;-75
2021/03/26 09:50:37;;;;;;;21.60;8.88;;;;;;;-141.50;100.00;63355.56;5036582;28;20567;-75
2021/03/26 09:53:11;;;;;;;20.10;9.43;;;;;;;-141.50;100.00;63355.56;5070446;28;20388;-74
2021/03/26 09:55:40;;;;;;;26.13;9.93;;;;;;;-141.50;100.00;63355.56;5070963;28;20055;-76
2021/03/26 09:58:36;;;;;;;19.85;10.52;;;;;;;-141.50;100.00;63355.56;5053215;28;20059;-76
2021/03/26 10:01:11;;;;;;;23.67;11.40;;;;;;;-141.50;100.00;63355.56;5070986;28;20048;-74
2021/03/26 10:03:43;;;;;;;30.92;12.98;;;;;;;-141.50;100.00;63355.56;5077486;28;20365;-76
2021/03/26 10:06:13;;;;;;;23.88;12.95;;;;;;;-141.50;100.00;63355.56;5052449;28;20499;-74
2021/03/26 10:09:08;;;;;;;27.23;12.77;;;;;;;-141.50;100.00;63355.56;5052030;28;20059;-75
2021/03/26 10:11:54;;;;;;;33.80;14.30;;;;;;;-141.50;100.00;63355.56;5067248;28;20040;-75
2021/03/26 10:14:24;;;;;;;29.60;14.00;;;;;;;-141.50;100.00;63355.56;5052587;28;20518;-75
2021/03/26 10:17:09;;;;;;;29.95;13.68;;;;;;;-141.50;100.00;63355.56;5053945;28;20040;-75
2021/03/26 10:19:40;;;;;;;28.60;14.50;;;;;;;-141.50;100.00;63355.56;5085879;28;20032;-75
2021/03/26 10:22:44;;;;;;;32.03;16.30;;;;;;;-141.50;100.00;63355.56;5090431;28;20048;-75
2021/03/26 10:25:22;;;;;;;33.50;16.40;;;;;;;-141.50;100.00;63355.56;5072233;28;20519;-76
2021/03/26 10:27:56;;;;;;;36.45;17.13;;;;;;;-141.50;100.00;63355.56;5091298;28;20093;-75
2021/03/26 10:30:31;;;;;;;32.63;16.48;;;;;;;-141.50;100.00;63355.56;5076670;28;20047;-74
2021/03/26 10:33:10;;;;;;;32.50;17.38;;;;;;;-141.50;100.00;63355.56;5072240;28;20071;-74
2021/03/26 10:35:57;;;;;;;35.60;18.25;;;;;;;-141.50;100.00;63355.56;5079512;28;20488;-74
2021/03/26 10:38:44;;;;;;;38.22;16.98;;;;;;;-141.50;100.00;63355.56;5069473;28;20135;-77
2021/03/26 10:41:37;;;;;;;35.30;17.67;;;;;;;-141.50;100.00;63355.56;5052178;28;20055;-73
2021/03/26 10:44:36;;;;;;;34.80;18.25;;;;;;;-141.50;100.00;63355.56;5035627;28;20321;-73
2021/03/26 10:47:21;;;;;;;35.17;17.65;;;;;;;-141.50;100.00;63355.56;5032551;28;20062;-75
2021/03/26 10:49:55;;;;;;;35.33;18.25;;;;;;;-141.50;100.00;63355.56;5067701;28;20044;-75
2021/03/26 10:52:30;;;;;;;41.60;19.08;;;;;;;-141.50;100.00;63355.56;5051177;28;20071;-76
2021/03/26 10:55:17;;;;;;;35.45;19.10;;;;;;;-141.50;100.00;63355.56;5068477;28;20045;-76
2021/03/26 10:57:55;;;;;;;40.60;19.40;;;;;;;-141.50;100.00;63355.56;5069060;28;20087;-77
2021/03/26 11:00:43;;;;;;;40.30;19.80;;;;;;;-141.50;100.00;63355.56;5069336;28;20044;-75
2021/03/26 11:03:24;;;;;;;38.10;19.40;;;;;;;-141.50;100.00;63355.56;5068277;28;20072;-75
2021/03/26 11:05:58;;;;;;;47.60;23.02;;;;;;;-141.50;100.00;63355.56;5051153;28;20098;-77
2021/03/26 11:08:34;;;;;;;44.80;23.88;;;;;;;-141.50;100.00;63355.56;5062759;28;20040;-74
2021/03/26 11:11:09;;;;;;;50.38;23.05;;;;;;;-141.50;100.00;63355.56;5050269;28;20127;-73
2021/03/26 11:13:58;;;;;;;48.83;23.77;;;;;;;-141.50;100.00;63355.56;5064380;28;20044;-76
2021/03/26 11:16:35;;;;;;;53.25;25.95;;;;;;;-141.50;100.00;63355.56;5088889;28;20506;-76
2021/03/26 11:19:25;;;;;;;54.40;27.08;;;;;;;-141.50;100.00;63355.56;5078771;28;20439;-75
2021/03/26 11:21:56;;;;;;;47.80;25.92;;;;;;;-141.50;100.00;63355.56;5057369;28;20092;-76
2021/03/26 11:24:23;;;;;;;52.63;26.25;;;;;;;-141.50;100.00;63355.56;5063251;28;20050;-74
2021/03/26 11:27:04;;;;;;;52.15;25.77;;;;;;;-141.50;100.00;63355.56;5089175;28;20461;-75
2021/03/26 11:29:37;;;;;;;43.30;23.52;;;;;;;-141.50;100.00;63355.56;5071002;28;20055;-75
2021/03/26 11:32:16;;;;;;;46.40;24.48;;;;;;;-141.50;100.00;63355.56;5046337;28;20063;-75
2021/03/26 11:35:07;;;;;;;52.08;23.80;;;;;;;-141.50;100.00;63355.56;5068575;28;20068;-75
2021/03/26 11:38:09;;;;;;;46.10;26.13;;;;;;;-141.50;100.00;63355.56;5089525;23;20160;-78
2021/03/26 11:40:45;;;;;;;55.97;27.35;;;;;;;-141.50;100.00;63355.56;5067734;28;20051;-78
2021/03/26 11:43:17;;;;;;;53.53;26.95;;;;;;;-141.50;100.00;63355.56;5088241;28;20123;-77
2021/03/26 11:46:05;;;;;;;52.20;27.10;;;;;;;-141.50;100.00;63355.56;5105668;28;20107;-80
2021/03/26 11:48:41;;;;;;;51.22;28.60;;;;;;;-141.50;100.00;63355.56;5096421;28;20100;-79